Llanbedr, United Kingdom
Current Conditions -  °F | °C
As of 11:50 AM on Sunday 25 Jan 2015 (Local Time) from EGOV Reporting Station
Haze Haze  
Wind Chill: 40°   Ceiling: 700
Heat Index: 48°   Visibility: 3mi
Dew Point: 46°   Wind: 24mph
Humidity: 93%   Direction: 210°SSW
Pressure: 30.3"   Gusts: NA
Location:  52.82°N, 4.1°W
Report Text: EGOV 251150Z AUTO 21021KT 5000 BR OVC007/// 09/08 Q1026 RERA
Loading
Personal Weather Stations






























Interactive Weather Map New forecast layout! Learn more

10-Day Weather Forecast

Advertisements
Track Severe Weather on mobile